INFORMACIÓN METAR y TAF
METAR FOR LHBP
ADDS - METARS form results

(1119 UTC 10 August 2020)
Data provider http://aviationweather.gov/metar/data/
 
METAR text: LHBP 101100Z VRB02KT 9999 VCTS FEW060CB FEW065 31/15 Q1016 NOSIG
Conditions at: LHBP (BUDAPEST/FERIHEG, HU) observed 1100 UTC 10 August 2020
Temperature: 31.0°C (88°F)
Dewpoint: 15.0°C (59°F) [RH = 38%]
Pressure (altimeter): 30.00 inches Hg (1016.0 mb)
Winds: variable direction winds at 2 MPH (2 knots; 1.0 m/s)
Visibility: 6 or more miles (10+ km)
Ceiling: at least 12,000 feet AGL
Clouds: few clouds at 6000 feet AGL
few clouds at 6500 feet AGL
Weather: VCTS  (thunderstorm in vicinity)

METAR text: LHBP 101034Z 11006KT 040V150 9999 VCTS FEW060CB FEW064 31/16 Q1016 TEMPO -TSRA
Conditions at: LHBP (BUDAPEST/FERIHEG, HU) observed 1034 UTC 10 August 2020
Temperature: 31.0°C (88°F)
Dewpoint: 16.0°C (61°F) [RH = 40%]
Pressure (altimeter): 30.00 inches Hg (1016.0 mb)
Winds: from the ESE (110 degrees) at 7 MPH (6 knots; 3.1 m/s)
Visibility: 6 or more miles (10+ km)
Ceiling: at least 12,000 feet AGL
Clouds: few clouds at 6000 feet AGL
few clouds at 6400 feet AGL
Weather: VCTS  (thunderstorm in vicinity)

METAR text: LHBP 101030Z VRB02KT 9999 FEW060CB FEW064 31/16 Q1016 TEMPO -TSRA
Conditions at: LHBP (BUDAPEST/FERIHEG, HU) observed 1030 UTC 10 August 2020
Temperature: 31.0°C (88°F)
Dewpoint: 16.0°C (61°F) [RH = 40%]
Pressure (altimeter): 30.00 inches Hg (1016.0 mb)
Winds: variable direction winds at 2 MPH (2 knots; 1.0 m/s)
Visibility: 6 or more miles (10+ km)
Ceiling: at least 12,000 feet AGL
Clouds: few clouds at 6000 feet AGL
few clouds at 6400 feet AGL
Weather: no significant weather observed at this time

Forecast for: LHBP (BUDAPEST/FERIHEG, HU)
Text: TAF LHBP 100515Z 1006/1106 VRB03KT CAVOK
Forecast period: 0600 UTC 10 August 2020 to 0600 UTC 11 August 2020
Forecast type: FROM: standard forecast or significant change
Winds: variable direction winds at 3 MPH (3 knots; 1.5 m/s)
Visibility: 6 or more miles (10+ km)
Ceiling: unknown
Clouds: missing
Weather: NSW  (no significant weather)
Text: TEMPO 1006/1010 07007KT
Forecast period: 0600 to 1000 UTC 10 August 2020
Forecast type: TEMPORARY: The following changes expected for less than half the time period
Winds: from the ENE (70 degrees) at 8 MPH (7 knots; 3.6 m/s)
Visibility: missing
Ceiling: unknown
Clouds: missing
Weather: no significant weather forecast for this period
Text: TEMPO 1010/1020 VRB15G25KT TSRA FEW055CB SCT070
Forecast period: 1000 to 2000 UTC 10 August 2020
Forecast type: TEMPORARY: The following changes expected for less than half the time period
Winds: variable direction winds at 17 MPH (15 knots; 7.7 m/s)
gusting to 29 MPH (25 knots; 12.9 m/s)
Visibility: missing
Ceiling: at least 12,000 feet AGL
Clouds: few clouds at 5500 feet AGL
scattered clouds at 7000 feet AGL
Weather: TSRA  (rain associated with thunderstorm(s))
Text: TEMPO 1103/1106 -SHRA
Forecast period: 0300 to 0600 UTC 11 August 2020
Forecast type: TEMPORARY: The following changes expected for less than half the time period
Visibility: missing
Ceiling: unknown
Clouds: missing
Weather: -SHRA  (light rain showers)

MAPA DE AEROPUERTO

INFORMACIÓN DE PISTA
Pista 13L Longitud 12162 ft Ancho 149 ft
Elevación 495 ft Umbral desplazado 0 ft Rumbo de pista 132
Pista 31R Longitud 12162 ft Ancho 149 ft
Elevación 417 ft Umbral desplazado 0 ft Rumbo de pista 312
Pista 13R Longitud 9875 ft Ancho 149 ft
Elevación 450 ft Umbral desplazado 0 ft Rumbo de pista 132
Pista 31L Longitud 9875 ft Ancho 149 ft
Elevación 450 ft Umbral desplazado 0 ft Rumbo de pista 312

FRECUANCIAS DEL AEROPUERTO
Tipo ACC Nombre BUDAPEST A Frecuencia 129.7 MHZ
Tipo APP Nombre DIRECTOR Frecuencia 119.5 MHZ
Tipo APRS Nombre Apron Guid Frecuencia 122.45 MHZ
Tipo APRW Nombre Apron Guid Frecuencia 131.55 MHZ
Tipo ATIS Nombre ATIS Frecuencia 132.375 MHZ
Tipo CDC Nombre Delivery Frecuencia 134.55 MHZ
Tipo GND Nombre GND Frecuencia 121.9 MHZ
Tipo TWR Nombre TWR Frecuencia 118.1 MHZ

RADIO AYUDAS DEL AEROPUERTO
Tipo VOR-DME Nombre Budapest Frecuencia 117300 KHZ
Tipo VOR-DME Nombre Monor Frecuencia 112500 KHZ
Tipo NDB Nombre Monor Frecuencia 288 KHZ
Tipo VOR-DME Nombre Tapiosap Frecuencia 115900 KHZ
Tipo NDB Nombre Tapiosap Frecuencia 306 KHZ